Time;durP1;ratioP1;P1;durP2;ratioP2;P2;SDS_P1;SDS_P2;PMS_P1;PMS_P2;Temp;Humidity;BMP_temperature;BMP_pressure;BME280_temperature;BME280_humidity;BME280_pressure;Samples;Min_cycle;Max_cycle;Signal;HPM_P1;HPM_P2
2023/11/06 00:00:08;;;;;;;1.03;0.50;;;;;;;9.68;81.72;96341.97;6219787;28;20200;-53
2023/11/06 00:03:10;;;;;;;1.13;0.40;;;;;;;9.42;84.74;96339.34;6215815;28;20199;-51
2023/11/06 00:06:12;;;;;;;1.27;0.43;;;;;;;9.33;84.12;96353.44;6217512;28;20204;-51
2023/11/06 00:09:15;;;;;;;2.50;0.30;;;;;;;9.17;86.39;96345.47;6215988;28;20282;-52
2023/11/06 00:12:17;;;;;;;0.80;0.37;;;;;;;8.78;91.05;96316.72;6217651;28;20562;-51
2023/11/06 00:15:20;;;;;;;1.30;0.47;;;;;;;8.89;90.90;96356.56;6217358;28;20194;-49
2023/11/06 00:18:23;;;;;;;3.00;0.60;;;;;;;8.73;93.08;96361.88;6217284;28;20562;-50
2023/11/06 00:21:25;;;;;;;1.33;0.43;;;;;;;8.84;88.50;96354.72;6217495;28;20195;-51
2023/11/06 00:24:29;;;;;;;1.80;0.60;;;;;;;9.59;74.83;96352.34;6217595;28;20259;-51
2023/11/06 00:27:32;;;;;;;1.97;0.40;;;;;;;9.69;78.09;96373.59;6212389;28;20654;-51
2023/11/06 00:30:34;;;;;;;2.33;0.50;;;;;;;9.50;81.13;96370.69;6217180;28;20316;-51
2023/11/06 00:33:39;;;;;;;0.30;0.30;;;;;;;9.47;83.89;96376.56;6217382;28;20206;-49
2023/11/06 00:36:41;;;;;;;1.53;0.50;;;;;;;9.36;80.85;96380.28;6216728;28;20202;-48
2023/11/06 00:39:44;;;;;;;1.73;0.40;;;;;;;9.23;82.93;96394.09;6217706;28;20193;-50
2023/11/06 00:42:46;;;;;;;1.13;0.33;;;;;;;9.26;84.59;96407.66;6218415;28;20205;-51
2023/11/06 00:45:48;;;;;;;2.80;0.73;;;;;;;9.96;72.62;96404.44;6220709;28;20237;-49
2023/11/06 00:48:50;;;;;;;1.20;0.53;;;;;;;9.70;78.78;96407.09;6222046;28;20725;-50
2023/11/06 00:51:52;;;;;;;0.60;0.33;;;;;;;9.34;83.04;96413.47;6232787;28;20222;-50
2023/11/06 00:54:54;;;;;;;1.53;0.50;;;;;;;9.91;69.67;96417.75;6221663;28;20197;-49
2023/11/06 00:57:57;;;;;;;1.00;0.60;;;;;;;10.24;69.56;96406.50;6222062;28;20439;-50
2023/11/06 01:00:59;;;;;;;1.30;0.50;;;;;;;9.91;74.49;96370.66;6220335;28;20695;-47
2023/11/06 01:04:01;;;;;;;1.53;0.43;;;;;;;10.00;69.95;96421.41;6220398;28;20213;-50
2023/11/06 01:07:03;;;;;;;1.17;0.43;;;;;;;9.93;73.40;96426.22;6220872;28;20204;-48
2023/11/06 01:10:07;;;;;;;1.30;0.30;;;;;;;9.78;72.84;96408.44;6220725;28;20318;-50
2023/11/06 01:13:09;;;;;;;0.90;0.50;;;;;;;9.98;69.57;96448.31;6221529;28;20206;-49
2023/11/06 01:16:12;;;;;;;0.57;0.30;;;;;;;10.02;69.67;96445.91;6218558;28;20660;-49
2023/11/06 01:19:14;;;;;;;2.23;0.60;;;;;;;9.95;73.50;96448.84;6220832;28;20207;-49
2023/11/06 01:22:16;;;;;;;2.03;0.60;;;;;;;9.94;71.68;96449.91;6221351;28;20202;-52
2023/11/06 01:25:28;;;;;;;1.40;0.60;;;;;;;9.72;76.81;96449.41;6221125;28;20747;-49
2023/11/06 01:28:30;;;;;;;1.10;0.50;;;;;;;10.08;70.62;96466.91;6220130;28;20286;-51
2023/11/06 01:31:32;;;;;;;1.90;0.60;;;;;;;9.67;75.75;96468.00;6220406;28;20337;-51
2023/11/06 01:34:35;;;;;;;3.00;0.90;;;;;;;9.60;78.16;96472.78;6220895;28;20646;-50
2023/11/06 01:37:40;;;;;;;1.40;0.70;;;;;;;9.92;68.43;96475.19;6221023;28;20567;-47
2023/11/06 01:40:43;;;;;;;0.50;0.40;;;;;;;9.88;73.24;96484.75;6218917;28;20207;-51
2023/11/06 01:43:45;;;;;;;0.83;0.70;;;;;;;9.64;76.52;96492.47;6219169;28;20208;-51
2023/11/06 01:46:47;;;;;;;3.27;0.60;;;;;;;9.51;76.65;96494.59;6220512;28;20218;-47
2023/11/06 01:49:50;;;;;;;2.60;0.60;;;;;;;9.37;74.27;96472.22;6220606;28;20691;-46
2023/11/06 01:52:53;;;;;;;1.27;0.50;;;;;;;9.42;76.46;96506.00;6219507;28;20196;-49
2023/11/06 01:55:55;;;;;;;1.77;0.70;;;;;;;9.12;79.94;96502.19;6219841;28;20200;-46
2023/11/06 01:58:59;;;;;;;1.17;0.40;;;;;;;9.02;81.41;96502.16;6215744;28;20200;-47
2023/11/06 02:02:04;;;;;;;2.93;0.70;;;;;;;9.23;76.22;96517.09;6219718;28;20207;-50
2023/11/06 02:05:09;;;;;;;2.47;0.60;;;;;;;8.88;80.58;96487.78;6218781;28;20217;-47
2023/11/06 02:08:11;;;;;;;1.23;0.60;;;;;;;8.87;81.76;96523.38;6219557;28;20663;-49
2023/11/06 02:11:14;;;;;;;0.47;0.30;;;;;;;8.70;82.25;96532.28;6219906;28;20190;-48
2023/11/06 02:14:16;;;;;;;2.17;0.53;;;;;;;8.63;82.18;96512.34;6234187;28;20203;-48
2023/11/06 02:17:18;;;;;;;0.93;0.43;;;;;;;8.81;77.12;96535.78;6218728;28;20216;-48
2023/11/06 02:20:22;;;;;;;2.70;0.40;;;;;;;8.94;80.63;96531.88;6235348;28;20202;-49
2023/11/06 02:23:25;;;;;;;1.23;0.67;;;;;;;9.03;75.15;96538.28;6219574;28;20222;-47
2023/11/06 02:26:28;;;;;;;2.37;0.57;;;;;;;9.19;75.48;96555.88;6218595;28;20564;-49
2023/11/06 02:29:30;;;;;;;1.70;0.60;;;;;;;9.15;76.19;96564.63;6219473;28;20627;-49
2023/11/06 02:32:32;;;;;;;1.20;0.37;;;;;;;8.95;77.83;96558.16;6217536;28;20217;-50
2023/11/06 02:35:34;;;;;;;1.77;0.40;;;;;;;9.18;73.33;96580.88;6202978;28;20191;-50
2023/11/06 02:38:36;;;;;;;1.40;0.40;;;;;;;9.03;78.01;96594.88;6218427;28;20206;-50
2023/11/06 02:41:38;;;;;;;2.33;0.57;;;;;;;9.13;77.80;96593.34;6215994;28;20193;-49
2023/11/06 02:44:41;;;;;;;1.40;0.50;;;;;;;9.44;70.51;96557.81;6219212;28;20764;-49
2023/11/06 02:47:43;;;;;;;1.20;0.53;;;;;;;9.74;71.39;96601.50;6219294;28;20204;-47
2023/11/06 02:50:45;;;;;;;1.50;0.70;;;;;;;9.52;74.78;96605.19;6217661;28;20207;-49
2023/11/06 02:53:47;;;;;;;1.03;0.40;;;;;;;9.14;79.75;96618.84;6217645;28;20206;-49
2023/11/06 02:56:50;;;;;;;2.20;0.50;;;;;;;8.94;78.67;96614.22;6217259;28;20239;-49
2023/11/06 02:59:52;;;;;;;2.90;0.50;;;;;;;8.84;81.92;96622.94;6219014;28;20200;-46
2023/11/06 03:02:55;;;;;;;2.03;0.40;;;;;;;8.60;80.98;96606.56;6218825;28;20612;-48
2023/11/06 03:05:57;;;;;;;3.03;0.53;;;;;;;8.64;82.80;96630.75;6219159;28;20220;-47
2023/11/06 03:09:00;;;;;;;1.70;0.50;;;;;;;8.54;82.88;96634.13;6216872;28;20306;-47
2023/11/06 03:12:02;;;;;;;3.63;0.97;;;;;;;8.71;81.00;96649.91;6219847;28;20211;-49
2023/11/06 03:15:05;;;;;;;2.80;0.50;;;;;;;8.65;81.69;96664.22;6217030;28;20197;-51
2023/11/06 03:18:07;;;;;;;1.27;0.77;;;;;;;8.59;79.93;96673.19;6217607;28;20561;-50
2023/11/06 03:21:10;;;;;;;1.67;0.50;;;;;;;8.68;81.47;96675.13;6214356;28;20207;-50
2023/11/06 03:24:13;;;;;;;0.83;0.40;;;;;;;8.82;80.55;96686.13;6217189;28;20196;-50
2023/11/06 03:27:15;;;;;;;2.03;0.83;;;;;;;8.57;83.38;96696.53;6214622;28;20223;-49
2023/11/06 03:30:17;;;;;;;3.87;0.73;;;;;;;8.42;83.81;96692.72;6218248;28;20224;-48
2023/11/06 03:33:19;;;;;;;0.77;0.30;;;;;;;9.08;77.00;96702.22;6218567;28;20196;-48
2023/11/06 03:36:23;;;;;;;1.40;0.50;;;;;;;8.93;76.19;96689.66;6218436;28;20283;-49
2023/11/06 03:39:25;;;;;;;1.10;0.60;;;;;;;9.16;75.14;96699.06;6216995;28;20220;-48
2023/11/06 03:42:27;;;;;;;1.07;0.50;;;;;;;9.13;74.92;96700.41;6217916;28;20193;-48
2023/11/06 03:45:29;;;;;;;1.53;0.70;;;;;;;9.01;77.45;96713.06;6217470;28;20213;-47
2023/11/06 03:48:31;;;;;;;3.13;0.47;;;;;;;8.96;76.30;96726.31;6216738;28;20207;-48
2023/11/06 03:51:33;;;;;;;1.93;0.70;;;;;;;8.80;78.27;96728.06;6231639;28;20292;-49
2023/11/06 03:54:35;;;;;;;2.00;0.40;;;;;;;8.61;81.19;96737.44;6216715;28;20837;-49
2023/11/06 03:57:37;;;;;;;2.63;0.47;;;;;;;8.20;85.74;96740.47;6212898;28;20685;-47
2023/11/06 04:00:41;;;;;;;1.47;0.50;;;;;;;7.87;86.11;96737.97;6218014;28;20232;-48
2023/11/06 04:03:43;;;;;;;1.80;0.60;;;;;;;7.71;87.73;96755.56;6218974;28;20201;-50
2023/11/06 04:06:45;;;;;;;3.17;0.63;;;;;;;7.53;88.74;96753.97;6217485;28;20254;-48
2023/11/06 04:09:47;;;;;;;1.60;0.43;;;;;;;7.39;90.87;96758.03;6217672;28;20322;-49
2023/11/06 04:12:51;;;;;;;1.17;0.40;;;;;;;7.21;92.25;96757.25;6218004;28;20576;-49
2023/11/06 04:15:53;;;;;;;2.23;0.40;;;;;;;7.30;91.21;96768.25;6218542;28;20274;-48
2023/11/06 04:18:55;;;;;;;0.93;0.47;;;;;;;7.21;92.32;96762.56;6222554;28;20200;-48
2023/11/06 04:21:58;;;;;;;1.80;0.50;;;;;;;6.87;93.38;96782.94;6221799;28;20198;-47
2023/11/06 04:25:00;;;;;;;4.20;0.60;;;;;;;6.67;94.72;96780.78;6222418;28;20706;-46
2023/11/06 04:28:04;;;;;;;4.87;0.60;;;;;;;6.47;96.21;96768.00;6220680;28;20944;-49
2023/11/06 04:31:06;;;;;;;2.67;0.60;;;;;;;6.40;97.15;96785.88;6222310;28;20228;-47
2023/11/06 04:34:08;;;;;;;2.37;0.50;;;;;;;6.29;98.42;96789.34;6221839;28;20257;-46
2023/11/06 04:37:12;;;;;;;1.70;0.73;;;;;;;6.07;99.65;96797.13;6222277;28;20246;-47
2023/11/06 04:40:14;;;;;;;5.17;0.83;;;;;;;6.02;100.00;96796.22;6221495;28;20185;-46
2023/11/06 04:43:17;;;;;;;1.50;0.50;;;;;;;5.85;100.00;96810.13;6221977;28;20222;-48
2023/11/06 04:46:19;;;;;;;1.03;0.60;;;;;;;5.73;100.00;96805.91;6220367;28;20204;-47
2023/11/06 04:49:21;;;;;;;3.37;0.67;;;;;;;5.61;100.00;96813.84;6221942;28;20180;-46
2023/11/06 04:52:23;;;;;;;2.73;0.60;;;;;;;5.55;100.00;96806.84;6221713;28;20198;-47
2023/11/06 04:55:26;;;;;;;0.90;0.60;;;;;;;5.48;100.00;96819.38;6222208;28;20199;-47
2023/11/06 04:58:28;;;;;;;0.60;0.60;;;;;;;5.40;100.00;96831.06;6221385;28;20199;-49
2023/11/06 05:01:31;;;;;;;1.80;0.60;;;;;;;5.27;100.00;96836.56;6221583;28;20695;-49
2023/11/06 05:04:33;;;;;;;1.90;0.63;;;;;;;5.19;100.00;96837.72;6220787;28;20203;-48
2023/11/06 05:07:36;;;;;;;4.57;1.10;;;;;;;5.06;100.00;96851.94;6221098;28;20575;-48
2023/11/06 05:10:38;;;;;;;0.83;0.43;;;;;;;5.02;100.00;96844.69;6222353;28;20270;-47
2023/11/06 05:13:41;;;;;;;1.20;0.50;;;;;;;5.12;100.00;96858.13;6221719;28;20587;-50
2023/11/06 05:16:44;;;;;;;1.17;0.70;;;;;;;5.08;100.00;96854.38;6221437;28;20644;-46
2023/11/06 05:19:46;;;;;;;3.17;0.83;;;;;;;5.07;100.00;96865.94;6221279;28;20575;-49
2023/11/06 05:22:48;;;;;;;2.10;0.63;;;;;;;5.09;100.00;96869.16;6220646;28;20203;-48
2023/11/06 05:25:50;;;;;;;4.53;2.70;;;;;;;5.08;100.00;96867.56;6220602;28;20219;-47
2023/11/06 05:28:52;;;;;;;5.87;1.30;;;;;;;5.03;100.00;96872.72;6219473;28;20202;-49
2023/11/06 05:31:54;;;;;;;3.57;0.50;;;;;;;4.91;100.00;96872.66;6235994;28;20235;-48
2023/11/06 05:34:57;;;;;;;0.90;0.40;;;;;;;4.88;100.00;96881.84;6220216;28;20327;-47
2023/11/06 05:37:59;;;;;;;0.70;0.50;;;;;;;4.76;100.00;96885.47;6220667;28;20560;-49
2023/11/06 05:41:01;;;;;;;1.33;0.40;;;;;;;4.69;100.00;96890.06;6220407;28;20199;-47
2023/11/06 05:44:04;;;;;;;1.53;0.70;;;;;;;4.58;100.00;96894.22;6220694;28;20693;-48
2023/11/06 05:47:06;;;;;;;0.83;0.50;;;;;;;4.53;100.00;96912.53;6220816;28;20271;-48
2023/11/06 05:50:08;;;;;;;2.80;0.67;;;;;;;4.51;100.00;96899.59;6220423;28;20727;-47
2023/11/06 05:53:10;;;;;;;2.50;0.57;;;;;;;4.45;100.00;96910.22;6218908;28;20219;-47
2023/11/06 05:56:13;;;;;;;2.10;0.70;;;;;;;4.41;100.00;96920.41;6218262;28;20205;-49
2023/11/06 05:59:15;;;;;;;1.97;0.50;;;;;;;4.32;100.00;96927.00;6218335;28;20228;-46
2023/11/06 06:02:17;;;;;;;1.67;0.83;;;;;;;4.33;100.00;96920.69;6220315;28;20187;-46
2023/11/06 06:05:21;;;;;;;1.40;0.40;;;;;;;4.13;100.00;96897.19;6219864;28;20248;-47
2023/11/06 06:08:23;;;;;;;2.23;0.60;;;;;;;4.29;100.00;96924.81;6220348;28;20209;-46
2023/11/06 06:11:25;;;;;;;1.90;0.47;;;;;;;4.28;100.00;96936.38;6219442;28;20691;-47
2023/11/06 06:14:27;;;;;;;1.60;0.47;;;;;;;4.31;100.00;96934.09;6219748;28;20730;-47
2023/11/06 06:17:30;;;;;;;1.43;0.50;;;;;;;4.05;100.00;96893.03;6217935;28;20193;-50
2023/11/06 06:20:32;;;;;;;1.40;0.40;;;;;;;4.26;100.00;96939.22;6221254;28;20196;-48
2023/11/06 06:23:34;;;;;;;2.70;0.40;;;;;;;4.28;100.00;96950.34;6219674;28;20201;-49
2023/11/06 06:26:39;;;;;;;0.30;0.30;;;;;;;4.29;100.00;96945.91;6217378;28;20227;-50
2023/11/06 06:29:42;;;;;;;0.47;0.33;;;;;;;4.30;100.00;96956.22;6217567;28;20630;-52
2023/11/06 06:32:44;;;;;;;1.90;0.50;;;;;;;4.30;100.00;96965.97;6219227;28;20280;-50
2023/11/06 06:35:46;;;;;;;0.73;0.37;;;;;;;4.27;100.00;96964.56;6219403;28;20191;-49
2023/11/06 06:38:48;;;;;;;1.53;0.50;;;;;;;4.32;100.00;96979.72;6218932;28;20296;-49
2023/11/06 06:41:50;;;;;;;0.60;0.50;;;;;;;4.35;100.00;96971.41;6219381;28;20205;-46
2023/11/06 06:44:52;;;;;;;2.87;0.53;;;;;;;4.37;100.00;96996.50;6219313;28;20594;-47
2023/11/06 06:47:54;;;;;;;2.37;0.60;;;;;;;4.39;100.00;97002.38;6218948;28;20269;-49
2023/11/06 06:50:57;;;;;;;2.07;0.50;;;;;;;4.37;100.00;96987.78;6233856;28;20231;-47
2023/11/06 06:53:59;;;;;;;1.97;0.47;;;;;;;4.45;100.00;96995.44;6219084;28;20574;-47
2023/11/06 06:57:03;;;;;;;1.17;0.40;;;;;;;4.50;100.00;97002.69;6218737;28;20194;-47
2023/11/06 07:00:08;;;;;;;0.53;0.30;;;;;;;4.60;100.00;97016.16;6218773;28;20190;-47
2023/11/06 07:03:10;;;;;;;1.97;0.50;;;;;;;4.59;100.00;97011.91;6216500;28;20558;-46
2023/11/06 07:06:14;;;;;;;2.00;0.30;;;;;;;4.68;100.00;97018.50;6219074;28;20913;-47
2023/11/06 07:09:17;;;;;;;0.67;0.30;;;;;;;4.79;100.00;97022.25;6218559;28;20209;-48
2023/11/06 07:12:20;;;;;;;2.53;0.40;;;;;;;4.82;100.00;97022.59;6218794;28;20202;-49
2023/11/06 07:15:25;;;;;;;3.93;0.60;;;;;;;4.86;100.00;97026.41;6216865;28;20771;-47
2023/11/06 07:18:28;;;;;;;1.03;0.47;;;;;;;4.89;100.00;97023.31;6218074;28;20261;-46
2023/11/06 07:21:31;;;;;;;0.47;0.40;;;;;;;4.96;100.00;97028.50;6218819;28;20199;-47
2023/11/06 07:24:34;;;;;;;0.57;0.40;;;;;;;5.12;100.00;97037.66;6217290;28;20187;-46
2023/11/06 07:27:37;;;;;;;1.07;0.30;;;;;;;5.06;100.00;97009.50;6216428;28;20223;-49
2023/11/06 07:30:39;;;;;;;0.87;0.40;;;;;;;5.39;100.00;97040.75;6217748;28;20929;-49
2023/11/06 07:33:41;;;;;;;1.97;0.30;;;;;;;5.61;100.00;97044.50;6218227;28;20206;-48
2023/11/06 07:36:44;;;;;;;1.20;0.40;;;;;;;5.80;100.00;97034.66;6217091;28;20231;-47
2023/11/06 07:39:46;;;;;;;3.03;0.40;;;;;;;6.02;100.00;97029.69;6217743;28;20862;-46
2023/11/06 07:42:48;;;;;;;1.03;0.40;;;;;;;6.33;100.00;97011.88;6217655;28;20312;-50
2023/11/06 07:45:50;;;;;;;0.40;0.40;;;;;;;6.91;100.00;97029.50;6216077;28;20687;-49
2023/11/06 07:48:53;;;;;;;0.80;0.40;;;;;;;7.22;100.00;97041.50;6217596;28;20192;-48
2023/11/06 07:51:55;;;;;;;1.60;0.60;;;;;;;7.65;100.00;97037.53;6216616;28;20283;-47
2023/11/06 07:55:01;;;;;;;0.57;0.30;;;;;;;7.78;100.00;97041.69;6218249;28;20210;-48
2023/11/06 07:58:04;;;;;;;1.40;0.40;;;;;;;7.97;100.00;97048.38;6216061;28;20208;-48
2023/11/06 08:01:06;;;;;;;4.17;0.40;;;;;;;8.35;100.00;97049.53;6216899;28;20647;-48
2023/11/06 08:04:08;;;;;;;1.40;0.50;;;;;;;8.75;100.00;97055.44;6217918;28;20197;-48
2023/11/06 08:07:13;;;;;;;0.93;0.50;;;;;;;9.36;87.66;97039.44;6217669;28;20752;-51
2023/11/06 08:10:15;;;;;;;0.83;0.40;;;;;;;9.98;78.79;97049.59;6218232;28;20192;-49
2023/11/06 08:13:17;;;;;;;1.27;0.40;;;;;;;10.09;86.55;97051.28;6216440;28;20345;-50
2023/11/06 08:16:20;;;;;;;1.63;0.40;;;;;;;10.09;83.29;97061.94;6216354;28;20191;-50
2023/11/06 08:19:22;;;;;;;1.33;0.40;;;;;;;10.89;69.31;97062.00;6217472;28;20203;-48
2023/11/06 08:22:24;;;;;;;1.70;0.40;;;;;;;10.96;72.51;97061.75;6216337;28;20670;-50
2023/11/06 08:25:26;;;;;;;1.67;0.30;;;;;;;11.07;74.61;97074.84;6217862;28;20672;-49
2023/11/06 08:28:29;;;;;;;0.67;0.30;;;;;;;11.13;74.65;97085.53;6213955;28;20227;-48
2023/11/06 08:31:31;;;;;;;1.13;0.43;;;;;;;11.62;66.23;97083.31;6216103;28;20261;-50
2023/11/06 08:34:33;;;;;;;0.53;0.30;;;;;;;11.63;73.05;97090.28;6217884;28;20192;-49
2023/11/06 08:37:35;;;;;;;0.83;0.47;;;;;;;11.75;65.83;97087.38;6217842;28;20700;-50
2023/11/06 08:40:37;;;;;;;2.53;0.50;;;;;;;12.12;59.07;97090.66;6216762;28;20687;-49
2023/11/06 08:43:42;;;;;;;1.33;0.50;;;;;;;12.25;63.98;97094.66;6217313;28;20558;-50
2023/11/06 08:46:44;;;;;;;2.13;0.50;;;;;;;12.50;61.02;97107.22;6215843;28;20665;-49
2023/11/06 08:49:47;;;;;;;1.67;0.33;;;;;;;12.65;57.09;97096.53;6217152;28;20193;-48
2023/11/06 08:52:49;;;;;;;1.10;0.33;;;;;;;12.54;64.76;97083.44;6216839;28;20663;-49
2023/11/06 08:55:51;;;;;;;2.07;0.40;;;;;;;13.11;54.56;97106.34;6217038;28;20193;-49
2023/11/06 08:58:53;;;;;;;2.47;0.67;;;;;;;13.32;60.60;97104.44;6217228;28;20211;-51
2023/11/06 09:01:55;;;;;;;1.23;0.40;;;;;;;13.50;53.46;97114.53;6217855;28;20283;-48
2023/11/06 09:04:57;;;;;;;0.30;0.30;;;;;;;13.73;54.47;97120.28;6221431;28;20192;-49
2023/11/06 09:08:00;;;;;;;1.53;0.40;;;;;;;14.12;49.63;97137.22;6221418;28;20228;-48
2023/11/06 09:11:02;;;;;;;1.77;0.50;;;;;;;14.12;51.54;97129.19;6221370;28;20847;-48
2023/11/06 09:14:04;;;;;;;0.90;0.40;;;;;;;14.22;49.78;97122.16;6221124;28;20203;-49
2023/11/06 09:17:06;;;;;;;0.80;0.57;;;;;;;14.26;52.96;97144.63;6220731;28;20199;-47
2023/11/06 09:20:09;;;;;;;1.07;0.40;;;;;;;14.59;46.46;97143.88;6220617;28;20275;-50
2023/11/06 09:23:11;;;;;;;0.80;0.40;;;;;;;14.42;52.55;97140.75;6221010;28;20193;-52
2023/11/06 09:26:14;;;;;;;1.10;0.30;;;;;;;14.56;46.26;97147.13;6221263;28;20294;-54
2023/11/06 09:29:16;;;;;;;0.83;0.27;;;;;;;14.49;46.85;97140.50;6220219;28;20185;-53
2023/11/06 09:32:18;;;;;;;0.93;0.33;;;;;;;14.49;49.08;97130.56;6219789;28;20196;-53
2023/11/06 09:35:25;;;;;;;1.03;0.30;;;;;;;14.53;50.39;97134.28;6221312;28;20602;-52
2023/11/06 09:38:27;;;;;;;1.67;0.40;;;;;;;14.55;47.58;97142.84;6221017;28;20193;-51
2023/11/06 09:41:29;;;;;;;1.20;0.40;;;;;;;14.70;46.64;97145.41;6220012;28;20276;-50
2023/11/06 09:44:31;;;;;;;0.80;0.30;;;;;;;14.77;45.33;97155.78;6220974;28;20632;-50
2023/11/06 09:47:36;;;;;;;0.97;0.30;;;;;;;14.70;51.42;97147.28;6236814;28;20699;-51
2023/11/06 09:50:42;;;;;;;0.73;0.30;;;;;;;14.52;47.99;97131.88;6220471;28;20197;-52
2023/11/06 09:53:45;;;;;;;1.37;0.30;;;;;;;14.66;47.05;97156.97;6219046;28;20200;-49
2023/11/06 09:56:48;;;;;;;0.97;0.30;;;;;;;14.64;46.77;97143.84;6219426;28;20189;-49
2023/11/06 09:59:52;;;;;;;1.97;0.40;;;;;;;14.42;47.13;97149.59;6217311;28;20681;-48
2023/11/06 10:02:54;;;;;;;2.47;0.50;;;;;;;14.38;48.06;97148.56;6219958;28;20558;-49
2023/11/06 10:05:58;;;;;;;1.63;0.30;;;;;;;14.26;53.13;97148.09;6219731;28;20185;-48
2023/11/06 10:09:22;;;;;;;0.30;0.20;;;;;;;14.21;53.50;97148.16;6220221;28;20559;-48
2023/11/06 10:12:24;;;;;;;0.40;0.40;;;;;;;14.07;54.46;97141.81;6220067;28;20193;-49
2023/11/06 10:15:26;;;;;;;0.30;0.30;;;;;;;14.02;53.49;97144.50;6219368;28;20319;-49
2023/11/06 10:18:29;;;;;;;0.97;0.30;;;;;;;14.14;51.10;97140.44;6219412;28;20679;-51
2023/11/06 10:21:31;;;;;;;1.30;0.40;;;;;;;14.26;51.02;97141.94;6220241;28;20298;-51
2023/11/06 10:24:48;;;;;;;0.87;0.30;;;;;;;14.35;49.55;97138.41;6218950;28;20287;-50
2023/11/06 10:27:50;;;;;;;0.97;0.30;;;;;;;14.45;51.39;97138.31;6217011;28;20452;-49
2023/11/06 10:30:52;;;;;;;3.07;0.50;;;;;;;14.56;49.51;97139.06;6218965;28;20291;-49
2023/11/06 10:33:54;;;;;;;1.33;0.37;;;;;;;14.88;46.65;97138.53;6219355;28;20585;-48
2023/11/06 10:37:10;;;;;;;1.53;0.57;;;;;;;14.81;47.82;97143.41;6219237;28;20664;-50
2023/11/06 10:40:18;;;;;;;1.53;0.60;;;;;;;14.78;48.30;97140.50;6217416;28;20657;-48
2023/11/06 10:43:21;;;;;;;0.47;0.20;;;;;;;14.68;49.91;97152.13;6218722;28;20668;-50
2023/11/06 10:46:33;;;;;;;1.13;0.30;;;;;;;14.63;50.41;97158.34;6218880;28;20219;-48
2023/11/06 10:49:51;;;;;;;3.40;0.60;;;;;;;14.71;47.71;97159.59;6217346;28;20200;-51
2023/11/06 10:52:55;;;;;;;3.93;0.50;;;;;;;14.61;48.76;97146.28;6218562;28;20205;-49
2023/11/06 10:56:04;;;;;;;0.57;0.30;;;;;;;14.61;49.44;97157.78;6219105;28;20705;-50
2023/11/06 10:59:08;;;;;;;1.57;0.50;;;;;;;14.85;48.25;97144.47;6219067;28;20200;-51
2023/11/06 11:02:29;;;;;;;1.23;0.43;;;;;;;14.78;48.70;97143.16;6218163;28;20216;-52
2023/11/06 11:05:33;;;;;;;1.93;0.50;;;;;;;14.72;47.36;97145.09;6216732;28;20292;-50
2023/11/06 11:08:38;;;;;;;1.20;0.63;;;;;;;14.75;46.43;97143.75;6218402;28;20216;-47
2023/11/06 11:11:41;;;;;;;1.57;0.40;;;;;;;14.64;48.94;97154.56;6218972;28;20223;-50
2023/11/06 11:14:44;;;;;;;0.70;0.33;;;;;;;14.73;48.66;97143.22;6218218;28;20195;-50
2023/11/06 11:18:00;;;;;;;0.93;0.63;;;;;;;14.69;50.59;97145.69;6218922;28;20197;-49
2023/11/06 11:21:04;;;;;;;1.93;0.50;;;;;;;14.63;51.77;97157.50;6216931;28;20651;-51
2023/11/06 11:24:44;;;;;;;0.60;0.33;;;;;;;14.85;46.65;97149.03;6218638;28;20204;-48
2023/11/06 11:28:16;;;;;;;0.50;0.27;;;;;;;14.75;47.14;97154.47;6215599;28;20575;-49
2023/11/06 11:31:44;;;;;;;1.20;0.53;;;;;;;14.63;50.36;97146.78;6215705;28;20709;-47
2023/11/06 11:34:47;;;;;;;3.13;0.60;;;;;;;14.68;50.65;97160.19;6216137;28;20672;-47
2023/11/06 11:37:58;;;;;;;0.90;0.20;;;;;;;14.65;48.79;97150.81;6218228;28;20228;-51
2023/11/06 11:41:05;;;;;;;0.63;0.43;;;;;;;14.73;46.98;97168.19;6218612;28;20202;-49
2023/11/06 11:44:11;;;;;;;0.57;0.40;;;;;;;14.71;49.88;97162.28;6215837;28;20596;-48
2023/11/06 11:47:13;;;;;;;1.97;0.40;;;;;;;14.90;46.30;97175.78;6216953;28;20688;-48
2023/11/06 11:50:35;;;;;;;1.80;0.70;;;;;;;14.70;47.14;97176.78;6217369;28;20189;-50
2023/11/06 11:53:37;;;;;;;0.33;0.30;;;;;;;14.64;49.04;97176.00;6216810;28;20303;-48
2023/11/06 11:56:51;;;;;;;2.33;0.63;;;;;;;14.69;49.12;97172.50;6217728;28;20191;-50
2023/11/06 11:59:54;;;;;;;2.10;0.40;;;;;;;14.69;46.87;97172.50;6218192;28;20204;-47
2023/11/06 12:03:06;;;;;;;0.40;0.40;;;;;;;14.52;48.48;97177.44;6217321;28;20543;-50
2023/11/06 12:06:09;;;;;;;0.90;0.50;;;;;;;14.63;47.93;97176.28;6217835;28;20299;-48
2023/11/06 12:09:11;;;;;;;1.10;0.50;;;;;;;14.60;48.02;97160.75;6217918;28;20696;-50
2023/11/06 12:12:22;;;;;;;0.70;0.40;;;;;;;14.92;46.07;97176.31;6217882;28;20243;-51
2023/11/06 12:15:32;;;;;;;1.17;0.30;;;;;;;14.73;47.49;97175.41;6213596;28;20674;-48
2023/11/06 12:18:35;;;;;;;2.80;0.87;;;;;;;14.75;48.14;97167.88;6218275;28;20649;-47
2023/11/06 12:21:37;;;;;;;0.37;0.30;;;;;;;14.68;47.14;97176.25;6217838;28;20200;-49
2023/11/06 12:24:50;;;;;;;0.33;0.20;;;;;;;14.44;52.41;97168.09;6217864;28;20196;-47
2023/11/06 12:27:52;;;;;;;1.97;0.40;;;;;;;14.30;49.90;97173.28;6217242;28;20613;-49
2023/11/06 12:30:54;;;;;;;1.60;0.40;;;;;;;14.39;48.15;97176.97;6217270;28;20229;-47
2023/11/06 12:33:57;;;;;;;0.83;0.20;;;;;;;14.52;47.06;97180.13;6216738;28;20216;-48
2023/11/06 12:37:01;;;;;;;0.50;0.40;;;;;;;14.46;47.61;97180.13;6218353;28;20501;-49
2023/11/06 12:40:23;;;;;;;1.57;0.40;;;;;;;14.43;49.09;97183.38;6223177;28;20672;-46
2023/11/06 12:43:27;;;;;;;0.73;0.30;;;;;;;14.38;49.44;97178.06;6220911;28;20193;-48
2023/11/06 12:46:45;;;;;;;2.33;0.30;;;;;;;14.37;50.07;97186.34;6221456;28;20908;-51
2023/11/06 12:49:52;;;;;;;0.40;0.40;;;;;;;14.13;51.57;97186.22;6218834;28;20250;-47
2023/11/06 12:52:54;;;;;;;0.97;0.53;;;;;;;13.97;52.86;97182.03;6221839;28;20311;-49
2023/11/06 12:55:57;;;;;;;1.73;0.53;;;;;;;13.91;51.96;97175.91;6225170;28;20403;-49
2023/11/06 12:59:00;;;;;;;1.40;0.60;;;;;;;13.97;52.63;97184.72;6221876;28;20220;-50
2023/11/06 13:02:02;;;;;;;4.33;0.50;;;;;;;13.51;60.19;97183.03;6219907;28;20204;-50
2023/11/06 13:05:09;;;;;;;0.40;0.40;;;;;;;13.19;62.10;97186.00;6221484;28;20890;-49
2023/11/06 13:08:12;;;;;;;2.17;0.40;;;;;;;13.23;56.71;97186.31;6221911;28;20200;-49
2023/11/06 13:11:14;;;;;;;2.47;0.40;;;;;;;13.23;59.50;97181.75;6221710;28;20267;-47
2023/11/06 13:14:33;;;;;;;0.87;0.43;;;;;;;12.84;64.56;97192.19;6221206;28;20291;-49
2023/11/06 13:17:38;;;;;;;0.67;0.40;;;;;;;12.78;62.91;97194.06;6221689;28;20200;-48
2023/11/06 13:20:59;;;;;;;0.90;0.30;;;;;;;12.99;55.05;97191.38;6221727;28;20734;-48
2023/11/06 13:24:02;;;;;;;0.87;0.53;;;;;;;12.90;59.40;97191.91;6219914;28;20201;-52
2023/11/06 13:27:04;;;;;;;0.70;0.40;;;;;;;13.12;60.23;97186.28;6218257;28;20211;-50
2023/11/06 13:30:09;;;;;;;0.70;0.30;;;;;;;12.95;61.58;97192.97;6222521;28;20239;-50
2023/11/06 13:33:11;;;;;;;1.63;0.47;;;;;;;13.05;56.48;97185.78;6220794;28;20709;-50
2023/11/06 13:36:15;;;;;;;0.83;0.40;;;;;;;13.13;57.49;97189.75;6220152;28;20615;-51
2023/11/06 13:39:20;;;;;;;3.67;0.60;;;;;;;12.91;63.08;97198.88;6218705;28;20189;-51
2023/11/06 13:42:23;;;;;;;1.30;0.40;;;;;;;12.58;65.19;97210.09;6218800;28;20193;-47
2023/11/06 13:45:27;;;;;;;0.87;0.40;;;;;;;12.35;66.45;97209.53;6220525;28;20196;-50
2023/11/06 13:48:29;;;;;;;0.60;0.40;;;;;;;12.13;67.54;97211.63;6220486;28;20242;-49
2023/11/06 13:51:31;;;;;;;1.40;0.40;;;;;;;11.97;70.03;97208.09;6220586;28;20254;-47
2023/11/06 13:54:34;;;;;;;0.73;0.40;;;;;;;11.84;71.83;97217.41;6219437;28;20200;-48
2023/11/06 13:57:39;;;;;;;2.10;0.60;;;;;;;11.73;73.20;97214.91;6219780;28;20197;-47
2023/11/06 14:00:49;;;;;;;0.97;0.50;;;;;;;11.59;73.34;97210.06;6218337;28;20578;-47
2023/11/06 14:03:51;;;;;;;1.33;0.33;;;;;;;11.49;74.64;97212.66;6219076;28;20212;-46
2023/11/06 14:06:54;;;;;;;0.93;0.30;;;;;;;10.87;75.05;97133.38;6220842;28;20192;-47
2023/11/06 14:09:57;;;;;;;0.40;0.23;;;;;;;11.31;76.87;97213.88;6218493;28;20204;-49
2023/11/06 14:13:00;;;;;;;0.50;0.40;;;;;;;11.23;77.01;97219.72;6219553;28;20600;-48
2023/11/06 14:16:02;;;;;;;0.40;0.40;;;;;;;11.17;76.37;97217.25;6217139;28;20335;-49
2023/11/06 14:19:04;;;;;;;0.57;0.50;;;;;;;11.15;75.67;97216.72;6219951;28;20196;-47
2023/11/06 14:22:08;;;;;;;2.20;0.40;;;;;;;11.09;76.91;97221.22;6220831;28;20206;-46
2023/11/06 14:25:10;;;;;;;0.30;0.30;;;;;;;11.02;77.52;97225.97;6219635;28;20197;-47
2023/11/06 14:28:13;;;;;;;2.67;0.47;;;;;;;10.90;78.92;97222.69;6218410;28;20209;-46